Airfield :
LOGIN :

Register | Disclaimer

   EN    FR    IT 

 










Legend :    VFR   Marginal VFR   IFR   Intensive IFR   Very Intensive IFR
Visi :
Ceiling :
>= 8 km
>= 3000ft
5 to 8 km
1000 to 3000 ft
1500m to 5 km
500 to 1000 ft
800 to 1500m
200 to 500 ft
< 800m
< 200 ft
Symbols :   Thunderstorms  Fog  Heavy snow  Heavy precipitations  Wind > 20 kt
SIGMETs :     Misc.  Thunderstorms  Icing  Turbulence  Mountain Waves  Volcanic Ashes







- Airport Elevation : 154 ft
- IATA code : SZZ


EPSC - Szczecin Goleniow

CURRENT METAR :
  • 151430Z 26013KT 9999 BKN049 21/08 Q1015

EXPIRED METARs :
  • 151400Z 25013KT 200V280 9999 FEW045 21/06 Q1015
  • 151330Z 24013KT 210V270 9999 BKN045 21/05 Q1015
  • 151300Z 24013KT 200V280 9999 SCT045 21/05 Q1015
  • 151230Z 24013G27KT 200V300 CAVOK 21/04 Q1015
  • 151200Z 25014KT 210V270 CAVOK 20/04 Q1016

TAF TAF EPSC
Valid from the 15 at 12:00 until the 16 at 12:00 UTC


151130Z 1512/1612 26013KT CAVOK
TEMPO 1512/1518 27018G30KT
BECMG 1515/1518 32010KT
TEMPO 1518/1521 32015G28KT
PROB40
TEMPO 1518/1523 -SHRA SCT010 BKN020TCU
PROB40
TEMPO 1606/1612 32015G25KT
No reported NOTAMs for that airfield.



MET'MAP, your aeronautical weather chart ! - Copyright ORBIFLY December 2007 - Disclaimer

ORBIFLY MET'MAP TEAM :

Programming & Development : Alexandra Zaïnal
Concept & Development : Baudouin d'Aumeries
Co-Development & Prog : Marc-Olivier Méhu
Technical & hardware support : Manuel Goepfert

Contact : metmap@orbifly.com




SOURCES & CREDITS :

   NOAA